Time;durP1;ratioP1;P1;durP2;ratioP2;P2;SDS_P1;SDS_P2;PMS_P1;PMS_P2;Temp;Humidity;BMP_temperature;BMP_pressure;BME280_temperature;BME280_humidity;BME280_pressure;Samples;Min_cycle;Max_cycle;Signal;HPM_P1;HPM_P2
2021/08/02 00:02:21;;;;;;;1.50;1.00;;;;;;;15.80;100.00;100333.91;5081486;28;20440;-66
2021/08/02 00:04:53;;;;;;;2.50;1.30;;;;;;;15.76;100.00;100331.09;5094155;28;20424;-66
2021/08/02 00:07:21;;;;;;;1.70;1.20;;;;;;;15.76;100.00;100333.00;5094350;28;20460;-66
2021/08/02 00:09:50;;;;;;;1.97;1.30;;;;;;;15.75;100.00;100331.41;5094053;28;20866;-66
2021/08/02 00:12:26;;;;;;;2.10;1.00;;;;;;;15.76;100.00;100338.47;5094310;28;20480;-65
2021/08/02 00:14:55;;;;;;;3.07;1.70;;;;;;;15.75;100.00;100336.88;5094423;28;20429;-66
2021/08/02 00:17:22;;;;;;;3.10;1.00;;;;;;;15.72;100.00;100330.19;5093798;28;20480;-66
2021/08/02 00:19:50;;;;;;;1.70;0.93;;;;;;;15.70;99.21;100335.16;5094181;28;20433;-66
2021/08/02 00:22:17;;;;;;;2.43;1.57;;;;;;;15.64;98.99;100334.59;5094115;28;20449;-64
2021/08/02 00:24:43;;;;;;;2.43;1.27;;;;;;;15.64;98.87;100336.53;5094126;28;20436;-66
2021/08/02 00:27:11;;;;;;;1.20;0.97;;;;;;;15.66;99.24;100341.66;5094019;28;20472;-65
2021/08/02 00:29:40;;;;;;;1.33;1.13;;;;;;;15.68;100.00;100342.13;5093987;28;20440;-63
2021/08/02 00:32:07;;;;;;;1.43;1.10;;;;;;;15.71;100.00;100339.47;5093909;28;20488;-67
2021/08/02 00:34:34;;;;;;;2.13;1.60;;;;;;;15.70;100.00;100337.91;5094020;28;20810;-67
2021/08/02 00:37:04;;;;;;;1.83;1.10;;;;;;;15.74;100.00;100347.00;5093758;28;20436;-68
2021/08/02 00:39:40;;;;;;;2.40;1.50;;;;;;;15.79;100.00;100338.56;5093873;28;20489;-67
2021/08/02 00:42:42;;;;;;;1.47;1.10;;;;;;;15.82;100.00;100337.09;5093889;28;20420;-67
2021/08/02 00:45:15;;;;;;;12.03;1.33;;;;;;;15.87;100.00;100337.66;5093891;28;20427;-67
2021/08/02 00:47:46;;;;;;;1.77;0.80;;;;;;;15.88;100.00;100341.97;5093753;28;20492;-68
2021/08/02 00:50:16;;;;;;;2.53;1.23;;;;;;;15.92;100.00;100338.56;5093740;28;20427;-67
2021/08/02 00:52:47;;;;;;;3.07;1.20;;;;;;;15.92;100.00;100344.03;5093585;28;20488;-67
2021/08/02 00:55:14;;;;;;;1.00;0.67;;;;;;;15.96;100.00;100342.22;5093683;28;20421;-67
2021/08/02 00:57:43;;;;;;;1.60;1.37;;;;;;;15.99;100.00;100341.53;5093210;28;20824;-68
2021/08/02 01:00:14;;;;;;;1.83;1.43;;;;;;;16.03;100.00;100347.91;5093726;28;20440;-68
2021/08/02 01:02:43;;;;;;;1.50;1.40;;;;;;;16.02;100.00;100343.56;5093268;28;20456;-69
2021/08/02 01:05:11;;;;;;;1.60;1.23;;;;;;;16.02;100.00;100341.63;5093481;28;20448;-68
2021/08/02 01:07:46;;;;;;;2.80;1.37;;;;;;;16.04;100.00;100341.31;5093542;28;20456;-68
2021/08/02 01:10:15;;;;;;;3.03;1.40;;;;;;;16.05;100.00;100346.41;5093562;28;20471;-68
2021/08/02 01:12:46;;;;;;;1.30;1.10;;;;;;;16.09;100.00;100354.72;5093160;28;21005;-68
2021/08/02 01:15:14;;;;;;;2.50;1.60;;;;;;;16.10;100.00;100346.16;5093430;28;20432;-68
2021/08/02 01:17:41;;;;;;;2.97;1.43;;;;;;;16.12;100.00;100354.03;5093051;28;20484;-68
2021/08/02 01:20:10;;;;;;;4.40;1.20;;;;;;;16.14;100.00;100352.53;5093021;28;20876;-68
2021/08/02 01:22:39;;;;;;;2.40;1.70;;;;;;;16.13;100.00;100347.44;5093320;28;20432;-67
2021/08/02 01:25:50;;;;;;;2.13;1.20;;;;;;;16.14;100.00;100351.75;5093517;28;20433;-67
2021/08/02 01:29:08;;;;;;;1.40;1.00;;;;;;;16.17;100.00;100353.81;5030686;28;21030;-67
2021/08/02 01:31:35;;;;;;;2.53;1.37;;;;;;;16.12;100.00;100354.84;5030639;28;20872;-67
2021/08/02 01:34:01;;;;;;;1.93;1.30;;;;;;;16.10;99.47;100359.84;5030514;28;20441;-68
2021/08/02 01:36:28;;;;;;;1.30;1.17;;;;;;;16.16;100.00;100360.41;5057844;28;20452;-68
2021/08/02 01:38:56;;;;;;;1.60;1.30;;;;;;;16.18;100.00;100355.38;5093104;28;20456;-68
2021/08/02 01:41:24;;;;;;;1.40;1.07;;;;;;;16.25;100.00;100366.56;5093202;28;20440;-67
2021/08/02 01:43:51;;;;;;;2.43;1.40;;;;;;;16.28;100.00;100371.31;5093187;28;20451;-68
2021/08/02 01:46:26;;;;;;;2.40;1.50;;;;;;;16.31;100.00;100373.34;5093171;28;20444;-68
2021/08/02 01:49:03;;;;;;;1.40;1.10;;;;;;;16.35;100.00;100371.53;5092704;28;20444;-68
2021/08/02 01:51:37;;;;;;;1.33;1.00;;;;;;;16.36;100.00;100383.25;5092996;28;20464;-67
2021/08/02 01:54:13;;;;;;;1.17;0.83;;;;;;;16.38;99.93;100384.53;5093115;28;20479;-68
2021/08/02 01:56:48;;;;;;;1.83;1.23;;;;;;;16.40;99.66;100382.22;5092801;28;20905;-67
2021/08/02 01:59:18;;;;;;;0.97;0.87;;;;;;;16.42;99.21;100386.53;5092935;28;20412;-67
2021/08/02 02:01:50;;;;;;;0.97;0.70;;;;;;;16.40;99.68;100379.50;5092721;28;20948;-68
2021/08/02 02:04:18;;;;;;;2.50;1.30;;;;;;;16.40;98.80;100384.97;5093040;28;20435;-68
2021/08/02 02:06:49;;;;;;;1.40;1.30;;;;;;;16.42;98.38;100386.53;5092963;28;20467;-67
2021/08/02 02:09:19;;;;;;;1.03;0.90;;;;;;;16.40;98.06;100389.63;5095424;28;20794;-68
2021/08/02 02:11:49;;;;;;;1.30;0.97;;;;;;;16.35;97.05;100387.13;5096529;28;20480;-68
2021/08/02 02:14:17;;;;;;;1.67;1.27;;;;;;;16.39;98.38;100385.31;5096639;28;20425;-68
2021/08/02 02:16:47;;;;;;;1.57;1.13;;;;;;;16.43;98.95;100388.94;5096183;28;20440;-68
2021/08/02 02:19:15;;;;;;;1.07;0.97;;;;;;;16.45;98.60;100391.31;5112913;22;20500;-75
2021/08/02 02:21:44;;;;;;;1.10;0.73;;;;;;;16.45;98.73;100396.81;5076049;28;20448;-75
2021/08/02 02:24:11;;;;;;;1.30;0.80;;;;;;;16.42;99.07;100390.06;5076024;28;20490;-75
2021/08/02 02:26:40;;;;;;;2.13;1.13;;;;;;;16.49;98.66;100403.16;5075894;28;20452;-76
2021/08/02 02:29:11;;;;;;;1.40;0.90;;;;;;;16.49;98.49;100403.16;5075922;28;20464;-75
2021/08/02 02:31:39;;;;;;;2.43;1.40;;;;;;;16.46;98.01;100409.31;5075559;28;20977;-75
2021/08/02 02:34:08;;;;;;;0.97;0.87;;;;;;;16.44;98.05;100409.69;5075533;28;20963;-75
2021/08/02 02:36:35;;;;;;;3.07;1.57;;;;;;;16.47;98.23;100413.63;5076010;28;20448;-75
2021/08/02 02:39:02;;;;;;;2.13;1.93;;;;;;;16.49;97.98;100411.38;5075789;28;20457;-78
2021/08/02 02:41:29;;;;;;;1.97;1.13;;;;;;;16.52;98.03;100408.75;5076543;28;20463;-76
2021/08/02 02:43:57;;;;;;;2.93;1.57;;;;;;;16.50;98.71;100418.44;5075445;28;20816;-77
2021/08/02 02:46:25;;;;;;;1.60;0.97;;;;;;;16.50;97.98;100416.50;5076046;28;20453;-79
2021/08/02 02:48:54;;;;;;;1.10;0.97;;;;;;;16.47;97.94;100421.84;5077377;28;20920;-77
2021/08/02 02:51:20;;;;;;;2.40;2.20;;;;;;;16.49;98.16;100422.31;5075584;28;20824;-77
2021/08/02 02:53:48;;;;;;;1.13;0.70;;;;;;;16.43;99.10;100431.91;5075215;28;20938;-76
2021/08/02 02:56:17;;;;;;;6.13;1.67;;;;;;;16.32;100.00;100426.09;5075423;28;20444;-76
2021/08/02 02:58:44;;;;;;;1.47;1.10;;;;;;;16.19;100.00;100430.75;5075307;28;20466;-76
2021/08/02 03:01:18;;;;;;;1.27;1.03;;;;;;;16.10;100.00;100433.63;5075510;28;20495;-76
2021/08/02 03:03:50;;;;;;;2.00;1.43;;;;;;;16.02;100.00;100433.72;5076439;28;20901;-76
2021/08/02 03:06:16;;;;;;;1.00;0.90;;;;;;;15.93;100.00;100438.50;5079624;28;20426;-75
2021/08/02 03:08:44;;;;;;;1.83;1.50;;;;;;;15.82;100.00;100438.16;5075279;28;20472;-75
2021/08/02 03:11:13;;;;;;;1.40;0.90;;;;;;;15.75;100.00;100433.25;5075134;28;20468;-75
2021/08/02 03:13:40;;;;;;;1.30;1.10;;;;;;;15.70;100.00;100435.41;5075164;28;20437;-75
2021/08/02 03:16:07;;;;;;;1.60;1.20;;;;;;;15.62;100.00;100440.59;5074848;28;20942;-76
2021/08/02 03:18:35;;;;;;;1.73;1.20;;;;;;;15.60;100.00;100447.53;5074564;28;20469;-75
2021/08/02 03:21:02;;;;;;;1.20;1.10;;;;;;;15.56;100.00;100447.41;5074980;28;20421;-76
2021/08/02 03:23:34;;;;;;;2.03;1.60;;;;;;;15.55;100.00;100439.56;5074806;28;20523;-75
2021/08/02 03:26:05;;;;;;;0.97;0.90;;;;;;;15.55;100.00;100442.31;5074613;28;20837;-77
2021/08/02 03:28:34;;;;;;;1.20;0.90;;;;;;;15.56;100.00;100439.22;5074734;28;20459;-77
2021/08/02 03:31:04;;;;;;;2.43;1.10;;;;;;;15.57;100.00;100440.81;5074819;28;20445;-76
2021/08/02 03:33:34;;;;;;;2.80;1.20;;;;;;;15.58;100.00;100436.16;5074731;28;20486;-76
2021/08/02 03:36:07;;;;;;;1.23;0.93;;;;;;;15.57;100.00;100440.81;5073985;28;20958;-76
2021/08/02 03:38:35;;;;;;;1.37;1.13;;;;;;;15.55;100.00;100451.28;5074544;28;20462;-76
2021/08/02 03:41:04;;;;;;;2.57;1.03;;;;;;;15.58;100.00;100453.34;5074547;28;20441;-76
2021/08/02 03:43:31;;;;;;;1.60;1.17;;;;;;;15.67;100.00;100456.03;5074545;28;20437;-76
2021/08/02 03:45:58;;;;;;;2.60;1.43;;;;;;;15.70;100.00;100460.78;5074414;28;20446;-76
2021/08/02 03:48:25;;;;;;;2.13;1.07;;;;;;;15.72;100.00;100458.53;5074347;28;20437;-77
2021/08/02 03:50:52;;;;;;;2.53;1.30;;;;;;;15.78;100.00;100470.03;5074397;28;20549;-76
2021/08/02 03:53:20;;;;;;;1.83;1.20;;;;;;;15.84;100.00;100465.94;5074317;28;20481;-77
2021/08/02 03:55:47;;;;;;;3.87;1.40;;;;;;;15.87;100.00;100465.25;5074282;28;20437;-77
2021/08/02 03:58:15;;;;;;;2.10;1.27;;;;;;;15.88;100.00;100475.03;5074637;28;20445;-77
2021/08/02 04:00:41;;;;;;;1.60;0.80;;;;;;;15.84;100.00;100469.44;5074163;28;20491;-77
2021/08/02 04:03:08;;;;;;;1.63;1.07;;;;;;;15.87;100.00;100468.78;5073942;28;21030;-77
2021/08/02 04:05:35;;;;;;;1.50;0.70;;;;;;;15.88;100.00;100475.84;5074292;28;20445;-76
2021/08/02 04:08:01;;;;;;;1.63;0.90;;;;;;;15.82;100.00;100479.94;5073758;28;20477;-75
2021/08/02 04:10:30;;;;;;;1.27;0.80;;;;;;;15.80;100.00;100490.38;5073537;28;20481;-76
2021/08/02 04:12:57;;;;;;;1.23;0.67;;;;;;;15.80;100.00;100492.31;5073709;28;20554;-76
2021/08/02 04:15:23;;;;;;;1.03;0.93;;;;;;;15.79;100.00;100494.25;5073924;28;20458;-76
2021/08/02 04:17:50;;;;;;;1.67;0.80;;;;;;;15.82;100.00;100493.59;5073906;28;20449;-76
2021/08/02 04:20:18;;;;;;;1.27;0.80;;;;;;;15.85;100.00;100495.66;5073420;28;20481;-76
2021/08/02 04:22:46;;;;;;;1.43;0.70;;;;;;;15.85;100.00;100492.13;5074404;28;20448;-77
2021/08/02 04:25:13;;;;;;;1.23;0.90;;;;;;;15.85;100.00;100494.84;5074749;28;20448;-77
2021/08/02 04:27:41;;;;;;;6.70;1.10;;;;;;;15.84;100.00;100498.69;5073802;28;20458;-76
2021/08/02 04:30:08;;;;;;;1.27;0.67;;;;;;;15.83;100.00;100503.38;5073116;28;21001;-77
2021/08/02 04:32:34;;;;;;;1.07;0.90;;;;;;;15.77;100.00;100501.22;5073200;28;20477;-77
2021/08/02 04:35:01;;;;;;;1.63;1.03;;;;;;;15.78;100.00;100500.06;5073750;28;20460;-76
2021/08/02 04:37:27;;;;;;;1.23;1.10;;;;;;;15.74;100.00;100505.41;5073359;28;20820;-77
2021/08/02 04:39:55;;;;;;;0.93;0.83;;;;;;;15.72;100.00;100504.94;5073306;28;20476;-77
2021/08/02 04:42:21;;;;;;;1.37;1.10;;;;;;;15.72;100.00;100513.16;5073578;28;20854;-77
2021/08/02 04:44:49;;;;;;;1.30;1.17;;;;;;;15.69;100.00;100513.81;5073427;28;20426;-77
2021/08/02 04:47:15;;;;;;;1.90;0.93;;;;;;;15.72;100.00;100515.88;5073461;28;20449;-77
2021/08/02 04:49:41;;;;;;;0.70;0.60;;;;;;;15.70;100.00;100520.88;5073094;28;20979;-77
2021/08/02 04:52:08;;;;;;;1.37;0.70;;;;;;;15.70;100.00;100522.78;5073298;28;20492;-76
2021/08/02 04:54:34;;;;;;;1.77;0.80;;;;;;;15.69;100.00;100529.41;5073477;28;20466;-76
2021/08/02 04:57:01;;;;;;;1.47;0.90;;;;;;;15.67;100.00;100527.03;5073384;28;20468;-76
2021/08/02 04:59:28;;;;;;;1.33;0.80;;;;;;;15.66;100.00;100535.53;5073244;28;20466;-77
2021/08/02 05:01:55;;;;;;;1.20;1.00;;;;;;;15.65;100.00;100523.81;5080362;28;20468;-76
2021/08/02 05:04:22;;;;;;;1.07;0.63;;;;;;;15.68;100.00;100525.88;5073986;28;20445;-76
2021/08/02 05:06:48;;;;;;;1.00;0.67;;;;;;;15.71;100.00;100527.91;5073807;28;20450;-76
2021/08/02 05:09:15;;;;;;;1.37;1.03;;;;;;;15.78;100.00;100532.84;5073808;28;20469;-77
2021/08/02 05:11:41;;;;;;;1.13;0.90;;;;;;;15.77;100.00;100533.97;5073564;28;20445;-77
2021/08/02 05:14:07;;;;;;;0.60;0.50;;;;;;;15.84;100.00;100540.47;5072827;28;20518;-75
2021/08/02 05:16:34;;;;;;;0.67;0.57;;;;;;;15.85;100.00;100531.16;5072853;28;20938;-76
2021/08/02 05:19:02;;;;;;;1.53;0.77;;;;;;;15.88;100.00;100533.19;5072741;28;20477;-76
2021/08/02 05:21:28;;;;;;;1.00;0.90;;;;;;;15.94;100.00;100527.50;5073152;28;20441;-76
2021/08/02 05:23:55;;;;;;;3.23;1.07;;;;;;;15.98;100.00;100533.91;5072772;28;20926;-76
2021/08/02 05:26:21;;;;;;;1.10;0.90;;;;;;;15.97;100.00;100524.13;5073028;28;20437;-76
2021/08/02 05:28:47;;;;;;;1.03;0.80;;;;;;;15.97;100.00;100530.38;5072974;28;20457;-76
2021/08/02 05:31:14;;;;;;;2.90;1.37;;;;;;;16.04;100.00;100535.28;5072720;28;20946;-76
2021/08/02 05:33:40;;;;;;;1.30;1.10;;;;;;;16.17;100.00;100539.63;5072995;28;20485;-76
2021/08/02 05:36:08;;;;;;;2.00;0.80;;;;;;;16.29;100.00;100538.84;5073105;28;20864;-76
2021/08/02 05:38:34;;;;;;;0.90;0.73;;;;;;;16.36;100.00;100547.28;5073112;28;20461;-76
2021/08/02 05:41:01;;;;;;;1.03;0.87;;;;;;;16.40;100.00;100548.19;5073213;28;20449;-76
2021/08/02 05:43:28;;;;;;;1.40;1.07;;;;;;;16.47;100.00;100548.44;5075729;28;20433;-76
2021/08/02 05:45:55;;;;;;;1.47;0.80;;;;;;;16.58;100.00;100554.25;5076956;28;20429;-76
2021/08/02 05:48:21;;;;;;;2.57;1.53;;;;;;;16.61;100.00;100548.09;5076852;28;20444;-77
2021/08/02 05:50:48;;;;;;;2.83;1.53;;;;;;;16.67;99.86;100554.91;5077093;28;20448;-76
2021/08/02 05:53:16;;;;;;;1.67;0.80;;;;;;;16.68;97.34;100558.44;5076462;28;21016;-76
2021/08/02 05:55:42;;;;;;;1.30;1.20;;;;;;;16.70;96.47;100550.72;5076255;28;20461;-75
2021/08/02 05:58:10;;;;;;;2.97;1.23;;;;;;;16.61;96.57;100562.56;5076484;28;20802;-75
2021/08/02 06:00:36;;;;;;;2.17;1.23;;;;;;;16.63;95.85;100551.28;5076505;28;20433;-75
2021/08/02 06:03:03;;;;;;;1.60;1.13;;;;;;;16.64;96.26;100547.38;5076501;28;20437;-75
2021/08/02 06:05:29;;;;;;;1.40;1.03;;;;;;;16.67;96.51;100557.66;5076376;28;20851;-75
2021/08/02 06:07:56;;;;;;;0.80;0.57;;;;;;;16.68;95.46;100561.97;5076355;28;20447;-75
2021/08/02 06:10:24;;;;;;;1.43;0.80;;;;;;;16.71;94.68;100558.56;5075929;28;20515;-75
2021/08/02 06:12:50;;;;;;;1.10;0.70;;;;;;;16.74;94.81;100568.06;5076178;28;20484;-74
2021/08/02 06:15:17;;;;;;;1.60;0.90;;;;;;;16.76;93.38;100560.31;5076231;28;20444;-76
2021/08/02 06:17:43;;;;;;;2.37;0.67;;;;;;;16.80;93.24;100562.00;5076004;28;20437;-76
2021/08/02 06:20:10;;;;;;;0.90;0.70;;;;;;;16.85;93.28;100559.03;5075789;28;20476;-76
2021/08/02 06:22:37;;;;;;;0.70;0.50;;;;;;;16.82;92.13;100559.75;5076405;28;20440;-77
2021/08/02 06:25:05;;;;;;;2.63;0.90;;;;;;;16.79;90.29;100552.22;5076843;28;20453;-75
2021/08/02 06:27:32;;;;;;;1.27;0.77;;;;;;;16.78;90.41;100556.09;5076135;28;20445;-74
2021/08/02 06:29:59;;;;;;;0.70;0.57;;;;;;;16.86;92.15;100557.88;5076642;28;20846;-78
2021/08/02 06:32:26;;;;;;;1.70;0.90;;;;;;;16.93;91.20;100562.00;5077155;28;20441;-77
2021/08/02 06:34:53;;;;;;;4.07;1.03;;;;;;;16.98;88.54;100567.22;5076865;28;20453;-77
2021/08/02 06:37:19;;;;;;;1.10;1.00;;;;;;;16.95;88.72;100570.66;5077096;28;20936;-77
2021/08/02 06:39:46;;;;;;;1.37;0.87;;;;;;;16.95;86.75;100571.44;5076489;28;20461;-77
2021/08/02 06:42:14;;;;;;;0.93;0.60;;;;;;;16.94;88.03;100567.13;5076774;28;20507;-72
2021/08/02 06:44:42;;;;;;;0.90;0.67;;;;;;;16.99;87.37;100568.81;5075550;28;20437;-75
2021/08/02 06:47:09;;;;;;;0.47;0.40;;;;;;;16.98;84.26;100569.97;5076121;28;20445;-76
2021/08/02 06:49:35;;;;;;;0.97;0.63;;;;;;;17.03;86.36;100570.53;5075724;28;20962;-76
2021/08/02 06:52:02;;;;;;;0.60;0.57;;;;;;;17.08;85.52;100577.69;5075417;28;20453;-76
2021/08/02 06:54:29;;;;;;;0.73;0.60;;;;;;;17.16;85.69;100579.50;5074493;28;20481;-76
2021/08/02 06:56:55;;;;;;;2.37;0.53;;;;;;;17.25;84.24;100577.44;5075785;28;20441;-77
2021/08/02 06:59:22;;;;;;;0.70;0.70;;;;;;;17.25;84.38;100588.38;5082054;28;20458;-75
2021/08/02 07:01:50;;;;;;;2.73;0.80;;;;;;;17.41;84.69;100577.50;5075779;28;20448;-75
2021/08/02 07:04:16;;;;;;;1.23;1.13;;;;;;;17.57;85.08;100585.78;5075700;28;20441;-75
2021/08/02 07:06:44;;;;;;;0.67;0.67;;;;;;;17.64;84.25;100588.72;5075667;28;20441;-76
2021/08/02 07:09:11;;;;;;;1.20;0.77;;;;;;;17.75;81.71;100587.13;5075478;28;20465;-78
2021/08/02 07:11:37;;;;;;;0.60;0.40;;;;;;;17.68;80.93;100584.16;5077092;28;20447;-79
2021/08/02 07:14:04;;;;;;;1.37;1.00;;;;;;;17.61;82.85;100597.63;5078280;28;21006;-84
2021/08/02 07:16:32;;;;;;;0.63;0.57;;;;;;;17.56;82.25;100595.94;5077569;28;20456;-79
2021/08/02 07:19:00;;;;;;;1.03;0.60;;;;;;;17.50;81.06;100596.53;5076340;28;20516;-81
2021/08/02 07:21:26;;;;;;;0.80;0.80;;;;;;;17.48;82.93;100596.88;5077121;28;20442;-85
2021/08/02 07:23:53;;;;;;;1.10;0.80;;;;;;;17.53;83.67;100604.03;5077687;28;20452;-82
2021/08/02 07:26:19;;;;;;;1.07;0.77;;;;;;;17.61;81.88;100594.91;5076625;28;20437;-77
2021/08/02 07:28:46;;;;;;;4.47;0.80;;;;;;;17.73;81.29;100585.84;5076390;28;20461;-81
2021/08/02 07:31:12;;;;;;;5.80;0.83;;;;;;;17.85;81.40;100589.34;5076456;28;20453;-80
2021/08/02 07:33:39;;;;;;;1.10;0.80;;;;;;;18.02;79.73;100595.69;5077156;28;20481;-80
2021/08/02 07:36:08;;;;;;;0.73;0.60;;;;;;;18.04;79.02;100602.38;5075554;28;20449;-76
2021/08/02 07:38:34;;;;;;;0.80;0.60;;;;;;;17.96;77.47;100599.81;5075977;28;20497;-76
2021/08/02 07:41:01;;;;;;;5.43;0.50;;;;;;;18.02;78.32;100598.41;5077482;28;20448;-82
2021/08/02 07:43:27;;;;;;;4.20;0.70;;;;;;;18.11;75.78;100607.28;5078036;28;20456;-81
2021/08/02 07:45:54;;;;;;;0.50;0.40;;;;;;;18.18;75.34;100607.44;5076298;28;20452;-80
2021/08/02 07:48:20;;;;;;;0.60;0.60;;;;;;;18.36;74.53;100596.94;5076562;28;20446;-81
2021/08/02 07:50:47;;;;;;;0.60;0.57;;;;;;;18.49;75.05;100590.22;5076531;28;20448;-82
2021/08/02 07:53:14;;;;;;;2.90;0.43;;;;;;;18.52;71.60;100605.19;5075922;28;21017;-80
2021/08/02 07:55:41;;;;;;;0.97;0.40;;;;;;;18.45;70.91;100600.28;5076023;28;20449;-81
2021/08/02 07:58:09;;;;;;;0.60;0.57;;;;;;;18.25;72.92;100604.09;5076412;28;20449;-82
2021/08/02 08:00:36;;;;;;;0.83;0.60;;;;;;;18.23;72.30;100601.69;5075836;28;20492;-75
2021/08/02 08:03:02;;;;;;;0.93;0.50;;;;;;;18.10;73.75;100602.91;5074578;28;20445;-77
2021/08/02 08:05:29;;;;;;;0.87;0.60;;;;;;;18.12;75.60;100597.91;5074338;28;20438;-80
2021/08/02 08:07:56;;;;;;;2.93;0.60;;;;;;;18.14;74.88;100598.31;5075871;28;20470;-80
2021/08/02 08:10:26;;;;;;;1.00;0.67;;;;;;;18.03;73.92;100598.06;5075409;28;20456;-77
2021/08/02 08:12:53;;;;;;;1.00;0.77;;;;;;;18.11;73.18;100610.00;5074954;28;20452;-76
2021/08/02 08:15:22;;;;;;;0.83;0.73;;;;;;;18.13;72.76;100600.28;5074318;28;20926;-74
2021/08/02 08:17:49;;;;;;;0.60;0.50;;;;;;;18.26;73.25;100602.94;5073850;28;20955;-74
2021/08/02 08:20:18;;;;;;;0.67;0.40;;;;;;;18.37;72.36;100604.00;5076239;28;20480;-78
2021/08/02 08:22:44;;;;;;;1.17;0.60;;;;;;;18.49;73.36;100600.38;5074772;28;20437;-80
2021/08/02 08:25:12;;;;;;;3.57;0.50;;;;;;;18.57;73.36;100596.69;5075841;28;20441;-80
2021/08/02 08:27:40;;;;;;;1.27;0.70;;;;;;;18.76;72.53;100601.47;5075461;28;20456;-79
2021/08/02 08:30:10;;;;;;;0.67;0.53;;;;;;;18.78;70.33;100616.44;5074813;28;20469;-80
2021/08/02 08:32:36;;;;;;;0.90;0.70;;;;;;;18.65;69.87;100601.97;5075054;28;20441;-81
2021/08/02 08:35:04;;;;;;;0.93;0.60;;;;;;;18.60;70.24;100607.75;5074922;28;20486;-81
2021/08/02 08:37:30;;;;;;;1.00;0.43;;;;;;;18.65;70.76;100617.66;5075167;28;20441;-79
2021/08/02 08:39:56;;;;;;;0.80;0.80;;;;;;;18.72;67.78;100608.81;5075300;28;20494;-79
2021/08/02 08:42:23;;;;;;;7.47;0.60;;;;;;;18.90;70.31;100610.03;5074747;28;20445;-80
2021/08/02 08:44:51;;;;;;;0.97;0.87;;;;;;;19.15;69.78;100618.84;5074619;28;20499;-81
2021/08/02 08:47:17;;;;;;;0.90;0.70;;;;;;;19.31;68.03;100608.63;5074866;28;20442;-80
2021/08/02 08:49:44;;;;;;;1.13;0.60;;;;;;;19.32;65.88;100612.94;5074876;28;20453;-81
2021/08/02 08:52:10;;;;;;;0.60;0.60;;;;;;;19.25;65.96;100604.53;5074755;28;20813;-80
2021/08/02 08:54:37;;;;;;;0.50;0.43;;;;;;;19.14;67.26;100609.81;5074379;28;21010;-81
2021/08/02 08:57:08;;;;;;;0.80;0.63;;;;;;;19.32;66.77;100607.44;5080578;28;20507;-81
2021/08/02 08:59:45;;;;;;;2.97;0.47;;;;;;;19.55;64.69;100612.25;5073157;28;20450;-81
2021/08/02 09:02:13;;;;;;;0.50;0.40;;;;;;;19.64;64.01;100615.59;5073512;28;20432;-81
2021/08/02 09:04:40;;;;;;;1.00;0.70;;;;;;;19.64;61.14;100610.09;5073904;28;20965;-80
2021/08/02 09:07:07;;;;;;;1.90;0.80;;;;;;;19.72;62.30;100611.03;5078203;28;20456;-80
2021/08/02 09:09:35;;;;;;;0.63;0.63;;;;;;;19.88;60.25;100614.53;5076814;28;20555;-79
2021/08/02 09:12:07;;;;;;;0.70;0.60;;;;;;;20.03;62.19;100615.56;5074509;28;20437;-80
2021/08/02 09:14:34;;;;;;;1.00;0.70;;;;;;;20.21;63.85;100607.66;5074328;28;20485;-80
2021/08/02 09:17:01;;;;;;;1.83;0.57;;;;;;;20.19;59.97;100610.78;5074311;28;20839;-81
2021/08/02 09:19:40;;;;;;;0.60;0.50;;;;;;;20.24;60.37;100624.22;5074406;28;20904;-80
2021/08/02 09:22:07;;;;;;;9.70;0.70;;;;;;;20.30;61.89;100611.75;5074313;28;20441;-80
2021/08/02 09:24:35;;;;;;;0.60;0.60;;;;;;;20.40;60.50;100613.88;5073790;28;20954;-80
2021/08/02 09:27:02;;;;;;;0.70;0.53;;;;;;;20.30;59.81;100622.75;5074726;28;20444;-80
2021/08/02 09:29:29;;;;;;;1.13;0.70;;;;;;;20.35;60.82;100627.94;5074334;28;20457;-80
2021/08/02 09:31:56;;;;;;;0.50;0.50;;;;;;;20.38;61.21;100620.94;5074244;28;20453;-80
2021/08/02 09:34:23;;;;;;;1.33;0.80;;;;;;;20.41;60.92;100625.72;5074027;28;21016;-80
2021/08/02 09:36:55;;;;;;;1.03;0.77;;;;;;;20.33;60.74;100624.78;5074593;28;20543;-81
2021/08/02 09:39:22;;;;;;;0.50;0.50;;;;;;;20.24;59.91;100623.44;5074323;28;20465;-79
2021/08/02 09:41:49;;;;;;;2.93;0.70;;;;;;;20.24;60.10;100626.19;5074292;28;20440;-80
2021/08/02 09:44:20;;;;;;;1.13;0.67;;;;;;;20.12;59.45;100621.63;5074009;28;20459;-81
2021/08/02 09:46:55;;;;;;;0.67;0.60;;;;;;;20.20;60.02;100622.56;5074125;28;20791;-80
2021/08/02 09:49:21;;;;;;;1.47;0.80;;;;;;;20.44;59.79;100630.47;5074343;28;20456;-81
2021/08/02 09:51:48;;;;;;;0.90;0.50;;;;;;;20.66;59.40;100626.13;5074092;28;20859;-81
2021/08/02 09:54:24;;;;;;;1.10;0.60;;;;;;;20.73;56.60;100631.78;5073999;28;20481;-80
2021/08/02 09:56:51;;;;;;;0.80;0.50;;;;;;;20.57;56.57;100628.34;5074741;28;20413;-81
2021/08/02 09:59:19;;;;;;;1.27;0.80;;;;;;;20.53;56.74;100624.75;5073705;28;20450;-78
2021/08/02 10:01:48;;;;;;;1.67;0.50;;;;;;;20.25;56.37;100633.28;5073959;28;20438;-80
2021/08/02 10:04:15;;;;;;;0.50;0.37;;;;;;;20.12;56.38;100635.38;5074326;28;20437;-80
2021/08/02 10:06:41;;;;;;;0.80;0.40;;;;;;;20.08;57.44;100631.78;5074127;28;20445;-80
2021/08/02 10:09:11;;;;;;;0.50;0.40;;;;;;;20.11;56.68;100639.31;5074051;28;20460;-82
2021/08/02 10:11:38;;;;;;;0.87;0.53;;;;;;;20.09;57.31;100623.16;5073155;28;20814;-78
2021/08/02 10:14:05;;;;;;;0.60;0.50;;;;;;;20.20;56.99;100631.63;5073670;28;20493;-80
2021/08/02 10:16:33;;;;;;;1.30;0.80;;;;;;;20.33;58.62;100637.75;5073494;28;20449;-81
2021/08/02 10:19:05;;;;;;;0.67;0.50;;;;;;;20.48;59.16;100631.34;5073037;28;20994;-81
2021/08/02 10:21:39;;;;;;;0.60;0.60;;;;;;;20.41;60.28;100642.22;5073492;28;20452;-81
2021/08/02 10:24:06;;;;;;;0.77;0.60;;;;;;;20.24;60.94;100648.97;5073463;28;20855;-80
2021/08/02 10:26:33;;;;;;;0.60;0.47;;;;;;;20.06;59.62;100648.66;5073344;28;20472;-79
2021/08/02 10:29:03;;;;;;;0.80;0.50;;;;;;;19.88;60.13;100651.06;5074416;28;20465;-81
2021/08/02 10:31:41;;;;;;;0.70;0.60;;;;;;;19.81;59.85;100653.66;5077568;28;20477;-80
2021/08/02 10:34:16;;;;;;;0.50;0.40;;;;;;;19.64;60.87;100651.31;5077533;28;20480;-80
2021/08/02 10:36:43;;;;;;;0.93;0.50;;;;;;;19.63;60.29;100652.50;5077350;28;20451;-79
2021/08/02 10:39:21;;;;;;;6.00;0.70;;;;;;;19.75;60.22;100652.34;5077430;28;20993;-80
2021/08/02 10:41:47;;;;;;;0.50;0.40;;;;;;;19.92;59.23;100659.34;5077356;28;20425;-80
2021/08/02 10:44:16;;;;;;;1.40;0.77;;;;;;;20.04;58.12;100661.94;5077396;28;20441;-81
2021/08/02 10:46:43;;;;;;;1.63;0.70;;;;;;;20.15;58.40;100662.19;5076913;28;20467;-79
2021/08/02 10:49:11;;;;;;;0.60;0.40;;;;;;;20.27;56.78;100648.22;5077518;28;20465;-79
2021/08/02 10:51:46;;;;;;;0.80;0.50;;;;;;;20.55;58.16;100655.47;5076938;28;20430;-80
2021/08/02 10:54:13;;;;;;;0.60;0.50;;;;;;;20.61;54.26;100652.00;5079496;28;21016;-81
2021/08/02 10:56:39;;;;;;;0.57;0.43;;;;;;;20.72;53.30;100652.22;5080271;28;20437;-81
2021/08/02 10:59:06;;;;;;;0.70;0.60;;;;;;;20.61;52.70;100651.22;5075596;28;20474;-80
2021/08/02 11:01:38;;;;;;;0.70;0.47;;;;;;;20.85;55.16;100659.13;5075703;28;20821;-80
2021/08/02 11:04:11;;;;;;;3.53;0.83;;;;;;;20.90;56.40;100650.53;5075563;28;20414;-79
2021/08/02 11:06:38;;;;;;;1.07;0.53;;;;;;;21.01;52.36;100638.88;5075906;28;20469;-79
2021/08/02 11:09:04;;;;;;;1.60;0.80;;;;;;;21.16;51.47;100638.72;5075618;28;20468;-79
2021/08/02 11:11:34;;;;;;;0.50;0.50;;;;;;;21.24;51.13;100638.81;5076223;28;20441;-80
2021/08/02 11:14:08;;;;;;;0.80;0.63;;;;;;;21.55;53.10;100644.00;5076072;28;20445;-80
2021/08/02 11:16:43;;;;;;;0.80;0.43;;;;;;;21.82;51.81;100635.66;5075923;28;20453;-80
2021/08/02 11:19:21;;;;;;;0.80;0.60;;;;;;;21.89;49.01;100642.06;5075716;28;20833;-80
2021/08/02 11:21:48;;;;;;;1.70;0.50;;;;;;;22.10;48.12;100651.75;5076752;28;20854;-80
2021/08/02 11:24:15;;;;;;;1.70;0.90;;;;;;;21.87;47.92;100633.38;5076494;28;20441;-79
2021/08/02 11:26:51;;;;;;;1.40;0.70;;;;;;;22.02;49.57;100648.13;5076594;28;20441;-80
2021/08/02 11:29:20;;;;;;;0.60;0.40;;;;;;;22.89;47.83;100645.00;5076315;28;20472;-79